Time;durP1;ratioP1;P1;durP2;ratioP2;P2;SDS_P1;SDS_P2;PMS_P1;PMS_P2;Temp;Humidity;BMP_temperature;BMP_pressure;BME280_temperature;BME280_humidity;BME280_pressure;Samples;Min_cycle;Max_cycle;Signal;HPM_P1;HPM_P2
2022/04/12 00:01:10;;;;;;;52.90;20.75;;;;;;;-0.68;65.07;100965.82;1712149;83;21023;-67
2022/04/12 00:03:36;;;;;;;42.70;19.67;;;;;;;-0.68;65.14;100965.36;1712451;83;21063;-67
2022/04/12 00:06:02;;;;;;;44.67;20.70;;;;;;;-0.69;65.22;100967.59;1712036;83;21452;-67
2022/04/12 00:08:28;;;;;;;45.90;17.12;;;;;;;-0.70;65.31;100965.04;1712392;83;21822;-67
2022/04/12 00:10:53;;;;;;;44.30;15.50;;;;;;;-0.72;65.37;100959.91;1712497;83;21090;-66
2022/04/12 00:13:19;;;;;;;42.78;15.93;;;;;;;-0.71;65.44;100966.84;1712404;83;21823;-67
2022/04/12 00:15:48;;;;;;;41.10;15.20;;;;;;;-0.72;65.51;100963.83;1712110;83;21000;-67
2022/04/12 00:21:00;;;;;;;43.73;15.72;;;;;;;-0.79;65.64;100958.55;1712130;83;21067;-67
2022/04/12 00:23:25;;;;;;;37.33;14.60;;;;;;;-0.84;65.73;100957.95;1712334;83;21070;-67
2022/04/12 00:25:53;;;;;;;32.80;14.90;;;;;;;-0.87;65.81;100963.36;1712510;83;21172;-67
2022/04/12 00:28:20;;;;;;;47.50;18.02;;;;;;;-0.89;65.90;100963.91;1712273;83;21032;-67
2022/04/12 00:30:46;;;;;;;52.33;19.32;;;;;;;-0.86;65.95;100968.98;1721240;81;21042;-67
2022/04/12 00:33:12;;;;;;;54.63;20.00;;;;;;;-0.85;66.00;100963.28;1732192;82;21094;-66
2022/04/12 00:35:38;;;;;;;48.55;18.62;;;;;;;-0.82;66.07;100965.27;1731769;82;20883;-67
2022/04/12 00:38:22;;;;;;;61.48;24.20;;;;;;;-0.86;66.10;100958.51;1760352;81;21135;-67
2022/04/12 00:40:47;;;;;;;57.13;20.88;;;;;;;-0.90;66.20;100962.22;1772019;81;20998;-67
2022/04/12 00:43:16;;;;;;;60.48;22.48;;;;;;;-0.95;66.29;100960.30;1772376;79;20986;-67
2022/04/12 00:45:43;;;;;;;54.48;20.37;;;;;;;-0.95;66.33;100962.91;1772524;81;21045;-67
2022/04/12 00:48:10;;;;;;;48.17;20.20;;;;;;;-0.92;66.42;100961.47;1772164;81;20994;-67
2022/04/12 00:50:37;;;;;;;48.15;23.12;;;;;;;-0.94;66.48;100967.23;1772128;81;21236;-67
2022/04/12 00:53:03;;;;;;;51.23;22.30;;;;;;;-0.94;66.52;100967.23;1772125;81;21554;-66
2022/04/12 00:55:30;;;;;;;47.83;24.82;;;;;;;-0.96;66.61;100965.17;1772331;81;21054;-67
2022/04/12 00:57:56;;;;;;;45.40;20.50;;;;;;;-0.98;66.68;100973.55;1772428;81;21530;-67
2022/04/12 01:00:24;;;;;;;46.35;21.30;;;;;;;-1.02;66.72;100971.56;1772319;81;20979;-67
2022/04/12 01:02:50;;;;;;;51.25;23.52;;;;;;;-1.05;66.81;100971.73;1772282;81;21134;-67
2022/04/12 01:05:16;;;;;;;43.68;20.15;;;;;;;-1.09;66.84;100977.23;1771917;80;21470;-67
2022/04/12 01:07:43;;;;;;;41.42;18.57;;;;;;;-1.14;66.91;100977.94;1770438;81;20998;-67
2022/04/12 01:10:09;;;;;;;31.35;15.15;;;;;;;-1.17;66.98;100983.34;1771705;81;21025;-67
2022/04/12 01:12:39;;;;;;;30.62;16.20;;;;;;;-1.15;67.06;100978.85;1772536;81;21447;-67
2022/04/12 01:15:20;;;;;;;47.25;19.98;;;;;;;-1.16;67.11;100981.11;1772455;80;21299;-67
2022/04/12 01:17:47;;;;;;;38.35;15.53;;;;;;;-1.21;67.17;100985.73;1772258;81;21045;-67
2022/04/12 01:20:14;;;;;;;37.90;14.70;;;;;;;-1.24;67.26;100981.51;1772375;80;20990;-67
2022/04/12 01:22:57;;;;;;;41.50;16.57;;;;;;;-1.23;67.32;100991.52;1772266;81;21038;-67
2022/04/12 01:25:23;;;;;;;29.65;13.22;;;;;;;-1.25;67.39;100989.42;1772156;81;21073;-67
2022/04/12 01:27:49;;;;;;;87.12;29.30;;;;;;;-1.25;67.46;100985.50;1771649;81;21179;-67
2022/04/12 01:30:15;;;;;;;123.62;39.58;;;;;;;-1.28;67.53;100986.52;1771168;81;21022;-67
2022/04/12 01:32:41;;;;;;;46.20;16.95;;;;;;;-1.27;67.58;100980.83;1772401;81;20994;-67
2022/04/12 01:35:08;;;;;;;44.70;18.67;;;;;;;-1.28;67.63;100986.98;1772349;80;21018;-67
2022/04/12 01:37:35;;;;;;;53.45;21.65;;;;;;;-1.29;67.69;100986.58;1772236;81;21534;-67
2022/04/12 01:40:02;;;;;;;70.97;28.32;;;;;;;-1.31;67.74;100983.22;1760104;80;21598;-67
2022/04/12 01:42:28;;;;;;;60.33;25.10;;;;;;;-1.33;67.80;100982.44;1758930;81;20971;-67
2022/04/12 01:44:54;;;;;;;59.50;22.98;;;;;;;-1.31;67.87;100988.45;1758646;81;20963;-67
2022/04/12 01:47:20;;;;;;;52.58;23.57;;;;;;;-1.33;67.95;100990.28;1758963;81;21038;-66
2022/04/12 01:49:46;;;;;;;47.05;19.73;;;;;;;-1.33;68.02;100986.36;1759017;81;21042;-67
2022/04/12 01:52:12;;;;;;;31.40;15.78;;;;;;;-1.34;68.07;100982.08;1758909;81;21189;-67
2022/04/12 01:54:38;;;;;;;31.35;15.30;;;;;;;-1.32;68.13;100991.98;1759011;81;20907;-67
2022/04/12 01:57:04;;;;;;;58.70;29.42;;;;;;;-1.34;68.17;100984.69;1759147;81;21042;-66
2022/04/12 01:59:30;;;;;;;30.97;16.42;;;;;;;-1.36;68.23;100985.22;1759122;80;21438;-67
2022/04/12 02:01:56;;;;;;;41.28;16.37;;;;;;;-1.39;68.29;100982.77;1758831;81;21503;-67
2022/04/12 02:04:22;;;;;;;38.15;17.05;;;;;;;-1.44;68.31;100984.79;1759113;80;21179;-67
2022/04/12 02:06:48;;;;;;;36.53;16.35;;;;;;;-1.47;68.38;100982.30;1759017;81;21385;-67
2022/04/12 02:09:14;;;;;;;31.77;16.93;;;;;;;-1.53;68.40;100980.86;1767045;81;21442;-67
2022/04/12 02:11:40;;;;;;;35.43;16.40;;;;;;;-1.55;68.45;100978.80;1771325;81;20966;-67
2022/04/12 02:14:07;;;;;;;45.70;22.77;;;;;;;-1.59;68.51;100978.12;1772186;80;21719;-67
2022/04/12 02:16:34;;;;;;;45.50;20.45;;;;;;;-1.60;68.56;100982.95;1772382;79;21144;-67
2022/04/12 02:19:01;;;;;;;34.18;15.95;;;;;;;-1.63;68.63;100975.73;1772136;81;20978;-67
2022/04/12 02:21:27;;;;;;;36.63;17.17;;;;;;;-1.63;68.67;100977.89;1772380;81;21013;-66
2022/04/12 02:23:53;;;;;;;52.55;21.95;;;;;;;-1.62;68.73;100976.13;1772287;81;21039;-67
2022/04/12 02:26:19;;;;;;;112.00;52.03;;;;;;;-1.62;68.77;100982.17;1772099;81;20990;-67
2022/04/12 02:28:45;;;;;;;69.35;36.00;;;;;;;-1.62;68.82;100982.17;1771905;81;21455;-67
2022/04/12 02:31:11;;;;;;;50.85;28.38;;;;;;;-1.64;68.86;100978.80;1772317;81;21541;-67
2022/04/12 02:33:37;;;;;;;197.02;100.55;;;;;;;-1.66;68.93;100971.52;1772470;80;21447;-67
2022/04/12 02:36:04;;;;;;;73.00;33.65;;;;;;;-1.67;68.99;100976.34;1772540;81;20914;-67
2022/04/12 02:38:30;;;;;;;43.55;19.98;;;;;;;-1.67;69.01;100975.04;1764426;81;21407;-66
2022/04/12 02:40:56;;;;;;;45.73;20.92;;;;;;;-1.66;69.05;100978.05;1741777;82;21534;-67
2022/04/12 02:43:22;;;;;;;155.70;59.83;;;;;;;-1.67;69.07;100972.88;1741963;82;20874;-66
2022/04/12 02:45:48;;;;;;;42.08;18.95;;;;;;;-1.71;69.12;100976.58;1741909;82;20927;-67
2022/04/12 02:48:14;;;;;;;49.05;19.52;;;;;;;-1.79;69.18;100976.95;1741972;82;21030;-66
2022/04/12 02:50:40;;;;;;;71.53;29.52;;;;;;;-1.87;69.20;100972.59;1742216;82;21060;-67
2022/04/12 02:53:06;;;;;;;79.35;31.50;;;;;;;-1.89;69.24;100967.89;1741959;81;21159;-67
2022/04/12 02:55:33;;;;;;;85.40;34.00;;;;;;;-1.91;69.31;100970.20;1742117;82;21069;-67
2022/04/12 02:57:59;;;;;;;64.55;26.50;;;;;;;-1.93;69.33;100968.97;1742085;81;21002;-67
2022/04/12 03:00:24;;;;;;;65.80;26.60;;;;;;;-1.94;69.38;100967.30;1742102;81;21297;-67
2022/04/12 03:02:50;;;;;;;49.13;19.80;;;;;;;-1.94;69.44;100967.30;1742020;82;21022;-67
2022/04/12 03:05:17;;;;;;;50.23;19.85;;;;;;;-1.94;69.48;100973.83;1741947;82;21161;-67
2022/04/12 03:07:43;;;;;;;48.50;21.80;;;;;;;-1.93;69.54;100975.95;1741955;82;21026;-67
2022/04/12 03:10:09;;;;;;;40.45;19.90;;;;;;;-1.91;69.61;100975.44;1765887;79;20903;-67
2022/04/12 03:12:35;;;;;;;47.73;19.85;;;;;;;-1.94;69.66;100979.06;1720239;81;20980;-67
2022/04/12 03:15:02;;;;;;;39.55;16.82;;;;;;;-1.97;69.69;100977.88;1720363;83;21007;-67
2022/04/12 03:17:29;;;;;;;35.15;15.45;;;;;;;-2.01;69.72;100982.89;1722058;83;21649;-67
2022/04/12 03:19:55;;;;;;;29.87;15.60;;;;;;;-2.02;69.76;100985.97;1721864;83;21003;-67
2022/04/12 03:22:21;;;;;;;34.13;15.83;;;;;;;-1.99;69.83;100982.34;1722101;83;21043;-66
2022/04/12 03:24:47;;;;;;;36.68;15.50;;;;;;;-2.02;69.86;100982.05;1744354;82;20972;-67
2022/04/12 03:27:13;;;;;;;29.37;13.88;;;;;;;-2.05;69.90;100983.97;1761447;81;20998;-67
2022/04/12 03:29:39;;;;;;;27.52;12.70;;;;;;;-2.06;69.97;100995.33;1761553;81;21378;-67
2022/04/12 03:32:06;;;;;;;36.25;16.23;;;;;;;-2.04;69.99;100992.16;1759290;81;20995;-67
2022/04/12 03:34:32;;;;;;;32.55;15.90;;;;;;;-2.04;70.03;100992.16;1758276;81;21047;-67
2022/04/12 03:36:59;;;;;;;39.83;18.35;;;;;;;-2.09;70.06;100990.26;1758538;81;20962;-67
2022/04/12 03:39:25;;;;;;;44.65;21.00;;;;;;;-2.10;70.11;100989.86;1756913;81;21007;-66
2022/04/12 03:41:52;;;;;;;47.80;20.88;;;;;;;-2.09;70.17;100992.41;1761466;81;21037;-66
2022/04/12 03:44:18;;;;;;;37.45;19.32;;;;;;;-2.10;70.22;100992.02;1761445;81;21042;-67
2022/04/12 03:46:43;;;;;;;41.42;19.82;;;;;;;-2.12;70.25;100994.33;1761717;81;20986;-67
2022/04/12 03:49:10;;;;;;;62.33;32.60;;;;;;;-2.13;70.28;100996.55;1760849;81;21482;-67
2022/04/12 03:51:37;;;;;;;54.08;27.05;;;;;;;-2.12;70.32;100993.88;1761660;81;21526;-67
2022/04/12 03:54:04;;;;;;;53.87;23.30;;;;;;;-2.12;70.37;100995.19;1761388;81;21132;-67
2022/04/12 03:56:30;;;;;;;46.92;20.40;;;;;;;-2.10;70.39;100987.25;1761362;81;21057;-67
2022/04/12 03:58:59;;;;;;;48.20;22.10;;;;;;;-2.11;70.42;100992.11;1761384;81;21068;-67
2022/04/12 04:01:27;;;;;;;54.23;23.75;;;;;;;-2.11;70.46;100997.34;1761570;81;21046;-67
2022/04/12 04:03:53;;;;;;;68.20;29.65;;;;;;;-2.08;70.49;101001.10;1761404;81;21003;-67
2022/04/12 04:06:19;;;;;;;48.00;23.40;;;;;;;-2.08;70.54;101001.10;1710711;83;21470;-67
2022/04/12 04:08:45;;;;;;;55.17;22.90;;;;;;;-2.05;70.57;101003.56;1729123;81;21051;-67
2022/04/12 04:11:11;;;;;;;49.35;21.97;;;;;;;-2.03;70.61;101004.31;1741653;81;21042;-67
2022/04/12 04:13:38;;;;;;;51.85;20.77;;;;;;;-2.02;70.68;101006.02;1740295;82;21069;-67
2022/04/12 04:16:05;;;;;;;49.53;22.67;;;;;;;-1.99;70.72;101004.56;1740465;82;21482;-67
2022/04/12 04:18:32;;;;;;;50.67;22.48;;;;;;;-1.95;70.75;101010.48;1740495;82;21046;-67
2022/04/12 04:20:58;;;;;;;56.30;25.20;;;;;;;-1.94;70.78;101009.11;1740279;82;20990;-67
2022/04/12 04:23:24;;;;;;;60.58;28.70;;;;;;;-1.92;70.82;101013.78;1740307;82;21057;-67
2022/04/12 04:25:50;;;;;;;62.98;27.82;;;;;;;-1.89;70.86;101009.71;1758401;81;21000;-67
2022/04/12 04:28:21;;;;;;;79.17;35.35;;;;;;;-1.78;70.91;101010.02;1761317;81;21105;-67
2022/04/12 04:30:44;;;;;;;77.62;36.23;;;;;;;-1.62;70.96;101007.01;1761074;81;21031;-67
2022/04/12 04:33:11;;;;;;;66.77;31.30;;;;;;;-1.51;70.96;101013.85;1766276;81;21475;-67
2022/04/12 04:35:37;;;;;;;53.00;26.02;;;;;;;-1.06;71.14;101008.02;1782928;80;20984;-67
2022/04/12 04:38:03;;;;;;;58.98;25.17;;;;;;;0.06;71.44;101010.52;1778818;80;20939;-67
2022/04/12 04:40:29;;;;;;;50.03;26.50;;;;;;;1.20;71.54;101000.06;1761787;80;21065;-67
2022/04/12 04:42:55;;;;;;;48.08;23.50;;;;;;;2.13;71.50;101005.43;1761560;81;22110;-67
2022/04/12 04:45:22;;;;;;;44.23;25.75;;;;;;;2.97;71.38;101007.13;1761655;81;21013;-67
2022/04/12 04:47:56;;;;;;;61.02;28.75;;;;;;;3.75;71.20;101009.02;1762018;81;20974;-67
2022/04/12 04:50:24;;;;;;;57.40;24.23;;;;;;;4.31;70.94;101008.31;1761633;81;20962;-67
2022/04/12 04:52:50;;;;;;;55.00;27.67;;;;;;;4.89;70.71;101005.20;1761708;81;21048;-67
2022/04/12 04:55:17;;;;;;;46.63;24.85;;;;;;;5.56;70.45;101007.83;1771006;80;21133;-67
2022/04/12 04:57:44;;;;;;;44.15;22.87;;;;;;;6.26;69.99;101012.22;1780203;80;20994;-67
2022/04/12 05:00:15;;;;;;;42.10;22.22;;;;;;;7.12;69.33;101010.09;1780493;80;20964;-68
2022/04/12 05:02:48;;;;;;;38.90;23.38;;;;;;;7.76;68.82;101020.36;1779674;80;21031;-67
2022/04/12 05:05:14;;;;;;;49.77;23.95;;;;;;;8.44;68.11;101013.65;1780023;80;21122;-68
2022/04/12 05:07:42;;;;;;;41.70;24.60;;;;;;;9.12;67.33;101017.50;1780101;80;21531;-68
2022/04/12 05:10:11;;;;;;;47.98;22.52;;;;;;;9.58;66.59;101021.92;1762805;80;21014;-68
2022/04/12 05:12:37;;;;;;;45.25;22.00;;;;;;;10.06;65.76;101023.82;1734395;81;21001;-68
2022/04/12 05:15:04;;;;;;;43.58;22.35;;;;;;;10.40;64.86;101027.50;1761602;81;20970;-68
2022/04/12 05:17:30;;;;;;;43.85;24.10;;;;;;;10.70;63.98;101028.06;1761780;81;21481;-68
2022/04/12 05:19:56;;;;;;;46.35;23.77;;;;;;;10.84;62.72;101034.16;1761515;81;22133;-68
2022/04/12 05:22:22;;;;;;;50.78;25.23;;;;;;;10.49;61.61;101038.57;1761731;81;21021;-68
2022/04/12 05:24:49;;;;;;;43.23;23.73;;;;;;;9.75;61.43;101034.44;1761348;80;20996;-68
2022/04/12 05:27:16;;;;;;;38.80;21.93;;;;;;;9.01;61.61;101042.45;1774874;80;21073;-68
2022/04/12 05:29:43;;;;;;;40.20;23.35;;;;;;;8.61;61.78;101043.17;1780093;80;21468;-68
2022/04/12 05:32:09;;;;;;;48.40;25.80;;;;;;;8.32;61.79;101049.83;1774175;80;21943;-68
2022/04/12 05:34:37;;;;;;;45.67;24.23;;;;;;;8.15;61.77;101049.16;1747021;81;21005;-68
2022/04/12 05:37:04;;;;;;;45.92;23.95;;;;;;;8.10;61.65;101054.88;1742080;80;21009;-68
2022/04/12 05:39:30;;;;;;;34.95;20.77;;;;;;;8.03;61.51;101057.73;1773888;80;21002;-68
2022/04/12 05:42:00;;;;;;;37.42;19.37;;;;;;;8.04;61.36;101062.07;1740494;81;21593;-68
2022/04/12 05:44:29;;;;;;;35.80;19.32;;;;;;;7.94;61.17;101069.19;1767171;81;20982;-68
2022/04/12 05:46:55;;;;;;;28.20;17.37;;;;;;;8.08;60.94;101060.83;1767040;81;21003;-68
2022/04/12 05:49:21;;;;;;;36.80;19.05;;;;;;;8.22;60.71;101065.73;1767135;81;20910;-68
2022/04/12 05:51:48;;;;;;;34.40;19.62;;;;;;;8.39;60.49;101072.20;1769443;79;20978;-69
2022/04/12 05:54:14;;;;;;;35.17;19.98;;;;;;;8.60;60.25;101068.92;1780563;80;21048;-68
2022/04/12 05:56:40;;;;;;;40.17;20.15;;;;;;;8.79;59.96;101077.37;1780334;80;21116;-69
2022/04/12 05:59:06;;;;;;;33.08;19.07;;;;;;;8.98;59.70;101079.99;1780402;80;21060;-69
2022/04/12 06:01:32;;;;;;;34.55;20.52;;;;;;;9.17;59.34;101071.98;1780422;80;21073;-69
2022/04/12 06:03:58;;;;;;;37.13;20.08;;;;;;;9.37;59.11;101072.26;1780410;80;20967;-69
2022/04/12 06:06:24;;;;;;;38.00;18.98;;;;;;;9.54;58.86;101066.65;1778245;80;21068;-69
2022/04/12 06:08:50;;;;;;;37.75;21.48;;;;;;;9.73;58.48;101075.89;1772396;79;21134;-69
2022/04/12 06:11:16;;;;;;;38.13;19.67;;;;;;;9.91;58.23;101075.45;1780453;80;21016;-69
2022/04/12 06:13:42;;;;;;;39.05;21.55;;;;;;;10.14;57.99;101074.55;1777197;80;21704;-68
2022/04/12 06:16:08;;;;;;;34.25;19.57;;;;;;;10.41;57.74;101067.82;1763383;80;21437;-69
2022/04/12 06:18:34;;;;;;;36.08;19.50;;;;;;;10.55;57.48;101076.30;1760881;80;21011;-69
2022/04/12 06:21:01;;;;;;;42.67;22.37;;;;;;;10.69;57.14;101069.93;1776264;80;21075;-69
2022/04/12 06:23:28;;;;;;;35.58;19.10;;;;;;;10.82;56.84;101074.85;1767300;80;21017;-69
2022/04/12 06:25:55;;;;;;;30.82;18.70;;;;;;;10.99;56.52;101077.98;1767534;81;21045;-69
2022/04/12 06:28:21;;;;;;;31.75;19.48;;;;;;;11.09;56.22;101077.87;1765244;80;21018;-69
2022/04/12 06:30:48;;;;;;;34.30;18.87;;;;;;;11.10;55.88;101077.73;1758841;79;21661;-69
2022/04/12 06:33:15;;;;;;;35.83;18.90;;;;;;;11.13;55.52;101080.08;1741898;81;21119;-69
2022/04/12 06:35:41;;;;;;;33.18;19.23;;;;;;;11.20;55.18;101089.14;1725861;83;21101;-69
2022/04/12 06:38:08;;;;;;;35.17;19.67;;;;;;;11.20;54.91;101093.64;1739934;81;20929;-70
2022/04/12 06:40:35;;;;;;;36.90;19.35;;;;;;;11.24;54.67;101091.84;1745168;81;21127;-69
2022/04/12 06:43:01;;;;;;;51.10;20.65;;;;;;;11.35;54.36;101092.92;1728317;82;21021;-69
2022/04/12 06:45:27;;;;;;;55.43;25.23;;;;;;;11.49;54.14;101097.67;1728362;81;21726;-69
2022/04/12 06:47:58;;;;;;;32.38;17.07;;;;;;;11.31;53.83;101099.56;1726188;83;21532;-69
2022/04/12 06:50:25;;;;;;;40.40;20.37;;;;;;;11.07;53.46;101100.73;1748644;81;21057;-69
2022/04/12 06:52:53;;;;;;;34.30;17.55;;;;;;;11.00;53.17;101099.68;1742045;81;21678;-69
2022/04/12 06:55:20;;;;;;;33.70;17.30;;;;;;;10.89;52.78;101107.93;1726068;81;21068;-69
2022/04/12 06:57:46;;;;;;;37.78;17.95;;;;;;;10.82;52.42;101109.54;1740574;81;21167;-69
2022/04/12 07:00:13;;;;;;;31.45;16.82;;;;;;;10.86;52.09;101104.24;1728476;82;20885;-69
2022/04/12 07:02:39;;;;;;;29.20;16.12;;;;;;;10.93;51.83;101102.63;1730191;81;21057;-69
2022/04/12 07:05:06;;;;;;;29.25;15.15;;;;;;;10.82;51.43;101100.20;1751309;81;21048;-69
2022/04/12 07:07:32;;;;;;;39.50;18.75;;;;;;;10.81;51.26;101095.84;1735884;81;21013;-69
2022/04/12 07:09:58;;;;;;;35.40;16.12;;;;;;;10.87;50.93;101090.73;1728157;81;21144;-69
2022/04/12 07:12:28;;;;;;;23.47;12.43;;;;;;;10.97;50.65;101096.00;1729119;81;20901;-69
2022/04/12 07:14:52;;;;;;;31.80;14.03;;;;;;;10.95;50.16;101109.48;1737393;81;21081;-69
2022/04/12 07:17:18;;;;;;;30.88;14.38;;;;;;;10.95;49.84;101103.30;1689445;83;21589;-69
2022/04/12 07:19:44;;;;;;;24.82;13.25;;;;;;;10.98;49.50;101106.50;1760823;80;21583;-69
2022/04/12 07:22:10;;;;;;;24.43;11.85;;;;;;;11.05;49.14;101108.05;1771924;80;21777;-69
2022/04/12 07:24:36;;;;;;;21.02;11.10;;;;;;;11.16;48.91;101110.47;1725391;81;21058;-70
2022/04/12 07:27:03;;;;;;;24.92;11.28;;;;;;;11.29;48.62;101114.92;1720592;82;21052;-69
2022/04/12 07:29:30;;;;;;;33.20;15.08;;;;;;;11.38;48.34;101111.29;1699879;82;21005;-69
2022/04/12 07:31:56;;;;;;;25.00;12.20;;;;;;;11.51;48.18;101111.69;1711189;82;21077;-69
2022/04/12 07:34:23;;;;;;;18.60;10.00;;;;;;;11.73;48.02;101105.00;1752936;81;21341;-69
2022/04/12 07:36:53;;;;;;;15.98;7.60;;;;;;;11.96;47.83;101107.95;1742637;81;21129;-69
2022/04/12 07:39:17;;;;;;;15.58;9.15;;;;;;;12.19;47.68;101107.67;1739654;81;21470;-69
2022/04/12 07:41:43;;;;;;;17.57;9.65;;;;;;;12.40;47.45;101109.89;1736402;81;21033;-69
2022/04/12 07:44:09;;;;;;;10.70;6.50;;;;;;;12.65;47.19;101110.77;1739791;81;21073;-69
2022/04/12 07:46:35;;;;;;;18.00;9.80;;;;;;;12.33;46.61;101112.89;1743164;80;21028;-69
2022/04/12 07:49:01;;;;;;;16.12;9.00;;;;;;;12.34;46.47;101115.41;1737239;80;21089;-69
2022/04/12 07:51:27;;;;;;;15.98;8.75;;;;;;;12.44;46.23;101108.08;1742015;80;20930;-69
2022/04/12 07:53:53;;;;;;;14.75;7.90;;;;;;;12.47;45.84;101106.41;1741019;81;21072;-69
2022/04/12 07:56:19;;;;;;;12.78;7.92;;;;;;;12.31;45.43;101110.39;1741081;82;21009;-69
2022/04/12 07:58:45;;;;;;;18.45;10.05;;;;;;;12.30;45.22;101120.75;1744340;81;21766;-69
2022/04/12 08:01:11;;;;;;;12.37;7.70;;;;;;;12.34;45.06;101123.44;1728984;82;21559;-69
2022/04/12 08:03:39;;;;;;;22.93;11.33;;;;;;;12.57;44.95;101118.28;1739602;81;21034;-69
2022/04/12 08:06:05;;;;;;;17.35;10.00;;;;;;;12.68;44.78;101119.80;1735678;81;21597;-70
2022/04/12 08:08:32;;;;;;;18.73;7.97;;;;;;;12.73;44.62;101120.16;1724899;82;22058;-70
2022/04/12 08:10:59;;;;;;;21.93;11.20;;;;;;;12.81;44.50;101123.66;1730560;82;21068;-69
2022/04/12 08:13:25;;;;;;;19.23;11.33;;;;;;;12.73;44.25;101109.45;1739946;82;20998;-69
2022/04/12 08:15:51;;;;;;;17.70;11.65;;;;;;;12.70;44.01;101120.48;1742433;82;21072;-69
2022/04/12 08:18:17;;;;;;;23.57;11.20;;;;;;;12.66;44.02;101103.08;1742864;82;21057;-69
2022/04/12 08:20:43;;;;;;;19.23;11.88;;;;;;;13.00;43.95;101127.84;1743084;82;21617;-69
2022/04/12 08:23:09;;;;;;;16.70;9.68;;;;;;;12.85;43.65;101125.50;1741519;82;22053;-69
2022/04/12 08:25:35;;;;;;;26.62;12.45;;;;;;;12.79;43.42;101124.83;1740307;82;21037;-69
2022/04/12 08:28:01;;;;;;;18.40;9.88;;;;;;;12.79;43.42;101124.83;1741684;82;21036;-69
2022/04/12 08:30:27;;;;;;;11.43;6.20;;;;;;;12.92;43.48;101134.03;1741194;82;21000;-69
2022/04/12 08:32:53;;;;;;;9.75;5.78;;;;;;;12.88;43.14;101131.84;1740079;82;20997;-69
2022/04/12 08:35:19;;;;;;;12.20;6.70;;;;;;;13.19;43.06;101134.25;1733674;82;21194;-70
2022/04/12 08:37:45;;;;;;;10.60;5.50;;;;;;;13.19;43.06;101134.25;1733030;82;21042;-70
2022/04/12 08:40:12;;;;;;;9.78;5.20;;;;;;;13.08;42.65;101138.57;1734162;82;21053;-70
2022/04/12 08:42:38;;;;;;;10.48;5.53;;;;;;;13.05;42.28;101132.71;1733874;82;21027;-70
2022/04/12 08:45:08;;;;;;;12.78;6.03;;;;;;;13.05;42.28;101132.71;1735619;82;21089;-70
2022/04/12 08:47:36;;;;;;;10.23;5.03;;;;;;;13.30;41.96;101129.85;1733876;82;21069;-70
2022/04/12 08:50:04;;;;;;;8.15;4.67;;;;;;;12.98;41.13;101132.55;1733309;82;21554;-69
2022/04/12 08:52:30;;;;;;;12.05;5.10;;;;;;;12.98;41.13;101132.55;1744504;81;21455;-71
2022/04/12 08:54:56;;;;;;;13.08;5.25;;;;;;;12.89;41.08;101130.86;1737109;81;21530;-69
2022/04/12 08:57:22;;;;;;;6.55;4.80;;;;;;;13.19;41.14;101132.91;1734239;82;21851;-70
2022/04/12 08:59:48;;;;;;;14.28;6.62;;;;;;;13.39;41.06;101134.21;1734348;82;22006;-70
2022/04/12 09:02:14;;;;;;;13.13;6.28;;;;;;;13.30;40.93;101133.88;1735371;82;21557;-70
2022/04/12 09:04:40;;;;;;;8.50;2.90;;;;;;;13.45;41.01;101130.00;1736657;82;21043;-69
2022/04/12 09:07:10;;;;;;;7.50;3.77;;;;;;;13.49;40.92;101116.10;1739010;82;21151;-69
2022/04/12 09:09:39;;;;;;;12.75;5.45;;;;;;;13.55;40.63;101140.52;1735824;82;21073;-69
2022/04/12 09:12:11;;;;;;;7.80;3.95;;;;;;;13.34;40.42;101141.91;1724253;82;21756;-69
2022/04/12 09:14:41;;;;;;;8.80;3.17;;;;;;;13.18;40.21;101149.13;1728147;82;21018;-69
2022/04/12 09:17:10;;;;;;;6.28;3.15;;;;;;;13.32;40.17;101147.95;1731969;82;21057;-69
2022/04/12 09:19:48;;;;;;;6.37;3.47;;;;;;;13.48;40.04;101146.58;1730989;82;21554;-70
2022/04/12 09:22:17;;;;;;;6.47;4.03;;;;;;;13.51;39.92;101146.23;1736260;81;21073;-69
2022/04/12 09:24:53;;;;;;;8.55;4.40;;;;;;;13.64;39.84;101144.88;1757594;81;21057;-69
2022/04/12 09:27:21;;;;;;;9.90;4.20;;;;;;;13.71;39.85;101143.18;1739630;81;21038;-70
2022/04/12 09:29:50;;;;;;;7.75;4.50;;;;;;;13.76;39.81;101138.13;1757137;81;21030;-69
2022/04/12 09:32:18;;;;;;;10.50;5.53;;;;;;;13.70;39.78;101132.12;1757580;81;21022;-70
2022/04/12 09:34:44;;;;;;;10.93;4.28;;;;;;;13.74;39.72;101137.47;1764671;80;21022;-69
2022/04/12 09:37:28;;;;;;;5.37;3.77;;;;;;;13.61;39.42;101142.55;1763323;81;21198;-70
2022/04/12 09:40:02;;;;;;;8.93;4.70;;;;;;;13.44;39.29;101138.54;1761733;80;21016;-70
2022/04/12 09:42:50;;;;;;;9.28;4.05;;;;;;;13.56;39.21;101139.52;1756827;81;21045;-69
2022/04/12 09:45:24;;;;;;;6.60;3.80;;;;;;;13.32;39.09;101133.22;1755709;81;22296;-70
2022/04/12 09:47:52;;;;;;;8.55;4.47;;;;;;;13.03;38.81;101126.17;1754916;81;21016;-70
2022/04/12 09:50:22;;;;;;;7.60;4.42;;;;;;;13.16;38.92;101122.50;1741025;82;21238;-69
2022/04/12 09:53:01;;;;;;;8.90;4.20;;;;;;;13.42;38.94;101117.79;1742936;81;21061;-70
2022/04/12 09:55:40;;;;;;;8.40;4.55;;;;;;;13.48;38.74;101122.46;1741830;81;21031;-69
2022/04/12 09:58:09;;;;;;;9.55;4.70;;;;;;;13.38;38.84;101113.77;1738129;81;21062;-70
2022/04/12 10:00:35;;;;;;;9.65;4.15;;;;;;;13.38;38.78;101115.61;1748257;81;21541;-70
2022/04/12 10:03:08;;;;;;;8.00;4.78;;;;;;;13.54;38.85;101112.08;1742416;82;21788;-70
2022/04/12 10:05:34;;;;;;;10.58;4.87;;;;;;;13.75;38.76;101109.66;1743177;81;21015;-70
2022/04/12 10:08:03;;;;;;;8.20;4.40;;;;;;;13.77;38.78;101103.61;1743762;82;21301;-70
2022/04/12 10:10:30;;;;;;;8.95;4.78;;;;;;;13.81;38.83;101100.92;1744306;81;21049;-70
2022/04/12 10:12:58;;;;;;;7.17;4.22;;;;;;;13.62;38.67;101096.79;1743220;82;21010;-70
2022/04/12 10:15:26;;;;;;;5.92;4.00;;;;;;;13.66;38.65;101094.10;1743598;82;21776;-70
2022/04/12 10:17:53;;;;;;;8.38;3.83;;;;;;;13.65;38.46;101093.76;1740842;82;21013;-70
2022/04/12 10:20:19;;;;;;;8.90;3.80;;;;;;;13.61;38.29;101095.14;1741185;82;21541;-70
2022/04/12 10:22:46;;;;;;;6.35;4.05;;;;;;;13.70;38.22;101087.89;1743410;82;21001;-70
2022/04/12 10:25:20;;;;;;;7.50;4.20;;;;;;;13.81;38.16;101088.86;1743083;82;21060;-70
2022/04/12 10:27:47;;;;;;;7.30;4.15;;;;;;;13.76;38.09;101081.83;1743739;82;21052;-70
2022/04/12 10:30:26;;;;;;;5.72;3.90;;;;;;;13.82;38.04;101079.31;1742357;82;21021;-70
2022/04/12 10:33:03;;;;;;;9.08;3.95;;;;;;;13.95;38.01;101076.05;1743416;82;21566;-70
2022/04/12 10:35:31;;;;;;;8.30;4.83;;;;;;;13.98;38.00;101075.70;1754423;81;21038;-70
2022/04/12 10:37:57;;;;;;;8.48;4.75;;;;;;;13.86;37.71;101077.12;1741303;81;21031;-70
2022/04/12 10:40:26;;;;;;;11.00;4.30;;;;;;;13.63;37.42;101080.20;1743230;82;21179;-70
2022/04/12 10:42:54;;;;;;;7.58;4.53;;;;;;;13.41;37.23;101074.58;1748588;81;20999;-70
2022/04/12 10:45:32;;;;;;;8.65;4.60;;;;;;;13.53;37.32;101076.89;1739820;81;21476;-70
2022/04/12 10:47:59;;;;;;;9.93;4.67;;;;;;;13.58;37.20;101071.87;1742902;82;20998;-69
2022/04/12 10:50:26;;;;;;;6.60;4.53;;;;;;;13.46;36.99;101068.22;1743382;82;21061;-69
2022/04/12 10:52:52;;;;;;;10.60;4.92;;;;;;;13.33;36.83;101070.61;1742858;82;21210;-70
2022/04/12 10:55:26;;;;;;;8.75;4.62;;;;;;;13.26;36.72;101067.44;1743266;82;20975;-70
2022/04/12 10:57:53;;;;;;;8.35;4.25;;;;;;;13.27;36.55;101062.39;1743219;82;21013;-69
2022/04/12 11:00:21;;;;;;;8.65;5.08;;;;;;;13.31;36.57;101056.53;1743772;82;20996;-69
2022/04/12 11:02:56;;;;;;;7.35;4.97;;;;;;;13.34;36.48;101052.66;1744108;82;21032;-70
2022/04/12 11:05:43;;;;;;;7.67;4.37;;;;;;;13.54;36.54;101051.28;1742959;82;21328;-69
2022/04/12 11:08:20;;;;;;;8.35;4.60;;;;;;;13.71;36.57;101049.36;1744978;81;21012;-69
2022/04/12 11:10:58;;;;;;;9.83;4.67;;;;;;;13.79;36.57;101039.95;1745415;80;21069;-69
2022/04/12 11:13:30;;;;;;;7.67;4.97;;;;;;;13.89;36.58;101046.77;1743973;82;21002;-70
2022/04/12 11:15:59;;;;;;;7.37;4.50;;;;;;;14.10;36.64;101044.80;1764386;80;21346;-69
2022/04/12 11:18:43;;;;;;;12.07;4.70;;;;;;;14.23;36.60;101034.31;1763431;80;21473;-69